sensor_id;sensor_type;location;lat;lon;timestamp;temperature;humidity
63317;DHT22;49822;41.468;13.560;2023-01-16T00:01:07;6.90;88.30
63317;DHT22;49822;41.468;13.560;2023-01-16T00:03:34;6.90;88.30
63317;DHT22;49822;41.468;13.560;2023-01-16T00:06:02;6.90;88.20
63317;DHT22;49822;41.468;13.560;2023-01-16T00:08:30;6.90;88.10
63317;DHT22;49822;41.468;13.560;2023-01-16T00:10:57;6.80;87.70
63317;DHT22;49822;41.468;13.560;2023-01-16T00:13:25;6.40;86.50
63317;DHT22;49822;41.468;13.560;2023-01-16T00:15:56;6.20;88.20
63317;DHT22;49822;41.468;13.560;2023-01-16T00:18:28;6.10;89.90
63317;DHT22;49822;41.468;13.560;2023-01-16T00:20:55;6.30;91.10
63317;DHT22;49822;41.468;13.560;2023-01-16T00:23:24;6.50;91.20
63317;DHT22;49822;41.468;13.560;2023-01-16T00:25:51;6.70;91.20
63317;DHT22;49822;41.468;13.560;2023-01-16T00:28:18;6.80;90.30
63317;DHT22;49822;41.468;13.560;2023-01-16T00:30:48;6.20;87.30
63317;DHT22;49822;41.468;13.560;2023-01-16T00:33:18;5.50;88.40
63317;DHT22;49822;41.468;13.560;2023-01-16T00:35:46;5.50;91.20
63317;DHT22;49822;41.468;13.560;2023-01-16T00:38:15;5.70;92.10
63317;DHT22;49822;41.468;13.560;2023-01-16T00:40:42;5.70;92.40
63317;DHT22;49822;41.468;13.560;2023-01-16T00:43:10;5.80;93.00
63317;DHT22;49822;41.468;13.560;2023-01-16T00:45:40;5.90;93.00
63317;DHT22;49822;41.468;13.560;2023-01-16T00:48:09;5.90;92.60
63317;DHT22;49822;41.468;13.560;2023-01-16T00:50:36;5.70;91.80
63317;DHT22;49822;41.468;13.560;2023-01-16T00:53:04;5.80;93.30
63317;DHT22;49822;41.468;13.560;2023-01-16T00:55:35;6.30;95.20
63317;DHT22;49822;41.468;13.560;2023-01-16T00:58:04;6.40;94.50
63317;DHT22;49822;41.468;13.560;2023-01-16T01:00:35;6.40;93.80
63317;DHT22;49822;41.468;13.560;2023-01-16T01:03:07;6.50;93.30
63317;DHT22;49822;41.468;13.560;2023-01-16T01:05:36;6.60;93.30
63317;DHT22;49822;41.468;13.560;2023-01-16T01:08:04;6.80;93.70
63317;DHT22;49822;41.468;13.560;2023-01-16T01:10:35;6.90;93.40
63317;DHT22;49822;41.468;13.560;2023-01-16T01:13:03;6.90;92.90
63317;DHT22;49822;41.468;13.560;2023-01-16T01:15:34;6.90;92.40
63317;DHT22;49822;41.468;13.560;2023-01-16T01:18:06;6.90;91.70
63317;DHT22;49822;41.468;13.560;2023-01-16T01:20:34;6.80;90.30
63317;DHT22;49822;41.468;13.560;2023-01-16T01:23:02;6.70;90.80
63317;DHT22;49822;41.468;13.560;2023-01-16T01:25:30;6.40;90.60
63317;DHT22;49822;41.468;13.560;2023-01-16T01:27:57;6.20;92.10
63317;DHT22;49822;41.468;13.560;2023-01-16T01:30:25;6.50;93.90
63317;DHT22;49822;41.468;13.560;2023-01-16T01:32:52;6.80;94.90
63317;DHT22;49822;41.468;13.560;2023-01-16T01:35:20;7.00;94.60
63317;DHT22;49822;41.468;13.560;2023-01-16T01:37:48;6.90;93.20
63317;DHT22;49822;41.468;13.560;2023-01-16T01:40:16;6.80;92.60
63317;DHT22;49822;41.468;13.560;2023-01-16T01:42:43;6.80;91.70
63317;DHT22;49822;41.468;13.560;2023-01-16T01:52:56;6.00;92.20
63317;DHT22;49822;41.468;13.560;2023-01-16T01:55:26;6.20;93.30
63317;DHT22;49822;41.468;13.560;2023-01-16T01:57:57;6.40;93.60
63317;DHT22;49822;41.468;13.560;2023-01-16T02:00:27;6.40;93.20
63317;DHT22;49822;41.468;13.560;2023-01-16T02:03:16;6.40;93.00
63317;DHT22;49822;41.468;13.560;2023-01-16T02:05:48;6.60;93.20
63317;DHT22;49822;41.468;13.560;2023-01-16T02:08:18;6.80;93.20
63317;DHT22;49822;41.468;13.560;2023-01-16T02:10:56;6.70;91.80
63317;DHT22;49822;41.468;13.560;2023-01-16T02:13:25;6.60;92.20
63317;DHT22;49822;41.468;13.560;2023-01-16T02:15:55;6.60;92.30
63317;DHT22;49822;41.468;13.560;2023-01-16T02:18:42;6.80;92.90
63317;DHT22;49822;41.468;13.560;2023-01-16T02:50:04;7.30;91.90
63317;DHT22;49822;41.468;13.560;2023-01-16T02:55:33;7.50;91.20
63317;DHT22;49822;41.468;13.560;2023-01-16T02:58:04;7.40;91.00
63317;DHT22;49822;41.468;13.560;2023-01-16T03:00:35;7.40;90.90
63317;DHT22;49822;41.468;13.560;2023-01-16T03:04:04;7.40;91.10
63317;DHT22;49822;41.468;13.560;2023-01-16T03:15:28;7.00;92.50
63317;DHT22;49822;41.468;13.560;2023-01-16T03:20:29;7.20;93.80
63317;DHT22;49822;41.468;13.560;2023-01-16T03:23:12;7.40;93.80
63317;DHT22;49822;41.468;13.560;2023-01-16T03:32:29;6.90;91.00
63317;DHT22;49822;41.468;13.560;2023-01-16T03:37:11;6.60;93.30
63317;DHT22;49822;41.468;13.560;2023-01-16T03:39:46;6.60;93.90
63317;DHT22;49822;41.468;13.560;2023-01-16T03:42:43;6.80;94.20
63317;DHT22;49822;41.468;13.560;2023-01-16T03:45:21;6.90;94.10
63317;DHT22;49822;41.468;13.560;2023-01-16T03:47:54;7.00;94.00
63317;DHT22;49822;41.468;13.560;2023-01-16T03:50:25;7.10;93.20
63317;DHT22;49822;41.468;13.560;2023-01-16T03:52:57;6.80;92.70
63317;DHT22;49822;41.468;13.560;2023-01-16T03:58:28;7.20;96.00
63317;DHT22;49822;41.468;13.560;2023-01-16T04:03:38;7.40;95.00
63317;DHT22;49822;41.468;13.560;2023-01-16T04:08:46;7.20;94.20
63317;DHT22;49822;41.468;13.560;2023-01-16T04:11:16;7.20;94.20
63317;DHT22;49822;41.468;13.560;2023-01-16T04:13:46;7.20;94.20
63317;DHT22;49822;41.468;13.560;2023-01-16T04:16:17;7.10;94.10
63317;DHT22;49822;41.468;13.560;2023-01-16T04:18:46;7.20;94.70
63317;DHT22;49822;41.468;13.560;2023-01-16T04:21:15;7.10;94.20
63317;DHT22;49822;41.468;13.560;2023-01-16T04:23:44;6.90;94.70
63317;DHT22;49822;41.468;13.560;2023-01-16T04:26:11;7.00;95.60
63317;DHT22;49822;41.468;13.560;2023-01-16T04:28:40;7.20;96.10
63317;DHT22;49822;41.468;13.560;2023-01-16T04:31:07;7.30;96.00
63317;DHT22;49822;41.468;13.560;2023-01-16T04:33:38;7.20;95.80
63317;DHT22;49822;41.468;13.560;2023-01-16T04:36:07;7.30;95.70
63317;DHT22;49822;41.468;13.560;2023-01-16T04:38:34;7.20;95.40
63317;DHT22;49822;41.468;13.560;2023-01-16T04:41:02;7.20;95.10
63317;DHT22;49822;41.468;13.560;2023-01-16T04:43:30;7.00;95.00
63317;DHT22;49822;41.468;13.560;2023-01-16T04:45:58;6.90;96.00
63317;DHT22;49822;41.468;13.560;2023-01-16T04:48:26;7.00;96.20
63317;DHT22;49822;41.468;13.560;2023-01-16T04:50:54;7.00;96.50
63317;DHT22;49822;41.468;13.560;2023-01-16T04:53:21;7.10;96.90
63317;DHT22;49822;41.468;13.560;2023-01-16T04:55:49;7.30;97.20
63317;DHT22;49822;41.468;13.560;2023-01-16T04:58:17;7.70;97.80
63317;DHT22;49822;41.468;13.560;2023-01-16T05:00:46;7.70;97.30
63317;DHT22;49822;41.468;13.560;2023-01-16T05:03:16;8.00;98.00
63317;DHT22;49822;41.468;13.560;2023-01-16T05:06:04;8.20;97.60
63317;DHT22;49822;41.468;13.560;2023-01-16T05:08:32;7.80;95.90
63317;DHT22;49822;41.468;13.560;2023-01-16T05:10:59;7.40;95.70
63317;DHT22;49822;41.468;13.560;2023-01-16T05:13:29;7.60;94.80
63317;DHT22;49822;41.468;13.560;2023-01-16T05:15:58;8.10;94.80
63317;DHT22;49822;41.468;13.560;2023-01-16T05:18:29;8.40;93.00
63317;DHT22;49822;41.468;13.560;2023-01-16T05:20:56;9.10;89.30
63317;DHT22;49822;41.468;13.560;2023-01-16T05:23:23;9.50;84.20
63317;DHT22;49822;41.468;13.560;2023-01-16T05:25:51;9.60;84.20
63317;DHT22;49822;41.468;13.560;2023-01-16T05:28:21;9.40;85.00
63317;DHT22;49822;41.468;13.560;2023-01-16T05:30:49;9.50;85.30
63317;DHT22;49822;41.468;13.560;2023-01-16T05:33:19;9.90;83.60
63317;DHT22;49822;41.468;13.560;2023-01-16T05:35:47;9.80;85.20
63317;DHT22;49822;41.468;13.560;2023-01-16T05:38:15;9.50;87.20
63317;DHT22;49822;41.468;13.560;2023-01-16T05:40:43;9.40;88.80
63317;DHT22;49822;41.468;13.560;2023-01-16T05:43:13;9.40;89.50
63317;DHT22;49822;41.468;13.560;2023-01-16T05:45:42;9.30;90.00
63317;DHT22;49822;41.468;13.560;2023-01-16T05:48:12;9.30;90.00
63317;DHT22;49822;41.468;13.560;2023-01-16T05:50:40;9.40;89.80
63317;DHT22;49822;41.468;13.560;2023-01-16T05:53:09;9.40;90.30
63317;DHT22;49822;41.468;13.560;2023-01-16T05:55:43;9.20;91.20
63317;DHT22;49822;41.468;13.560;2023-01-16T05:58:12;9.10;91.90
63317;DHT22;49822;41.468;13.560;2023-01-16T06:00:42;9.00;92.30
63317;DHT22;49822;41.468;13.560;2023-01-16T06:03:14;9.00;92.50
63317;DHT22;49822;41.468;13.560;2023-01-16T06:05:45;8.80;92.30
63317;DHT22;49822;41.468;13.560;2023-01-16T06:08:13;8.60;93.00
63317;DHT22;49822;41.468;13.560;2023-01-16T06:10:40;8.60;93.20
63317;DHT22;49822;41.468;13.560;2023-01-16T06:13:09;8.30;93.60
63317;DHT22;49822;41.468;13.560;2023-01-16T06:15:36;8.20;94.60
63317;DHT22;49822;41.468;13.560;2023-01-16T06:18:06;8.20;94.90
63317;DHT22;49822;41.468;13.560;2023-01-16T06:20:34;8.20;95.10
63317;DHT22;49822;41.468;13.560;2023-01-16T06:23:01;8.30;95.40
63317;DHT22;49822;41.468;13.560;2023-01-16T06:25:29;8.30;95.40
63317;DHT22;49822;41.468;13.560;2023-01-16T06:27:57;8.40;95.50
63317;DHT22;49822;41.468;13.560;2023-01-16T06:30:24;8.40;95.30
63317;DHT22;49822;41.468;13.560;2023-01-16T06:32:54;8.40;95.10
63317;DHT22;49822;41.468;13.560;2023-01-16T06:35:23;8.40;94.80
63317;DHT22;49822;41.468;13.560;2023-01-16T06:37:54;8.40;94.80
63317;DHT22;49822;41.468;13.560;2023-01-16T06:40:21;8.30;94.60
63317;DHT22;49822;41.468;13.560;2023-01-16T06:42:49;8.20;94.30
63317;DHT22;49822;41.468;13.560;2023-01-16T06:45:17;8.10;94.40
63317;DHT22;49822;41.468;13.560;2023-01-16T06:47:52;8.00;94.90
63317;DHT22;49822;41.468;13.560;2023-01-16T06:50:21;8.00;95.40
63317;DHT22;49822;41.468;13.560;2023-01-16T06:52:49;8.00;95.80
63317;DHT22;49822;41.468;13.560;2023-01-16T06:55:17;8.10;95.90
63317;DHT22;49822;41.468;13.560;2023-01-16T06:57:45;8.00;95.30
63317;DHT22;49822;41.468;13.560;2023-01-16T07:00:14;7.80;95.60
63317;DHT22;49822;41.468;13.560;2023-01-16T07:02:42;7.90;96.50
63317;DHT22;49822;41.468;13.560;2023-01-16T07:05:10;8.00;96.70
63317;DHT22;49822;41.468;13.560;2023-01-16T07:07:37;8.00;96.70
63317;DHT22;49822;41.468;13.560;2023-01-16T07:10:05;8.00;96.60
63317;DHT22;49822;41.468;13.560;2023-01-16T07:12:32;7.90;96.60
63317;DHT22;49822;41.468;13.560;2023-01-16T07:14:59;7.90;96.70
63317;DHT22;49822;41.468;13.560;2023-01-16T07:17:46;8.00;96.90
63317;DHT22;49822;41.468;13.560;2023-01-16T07:20:32;8.00;96.60
63317;DHT22;49822;41.468;13.560;2023-01-16T07:23:25;8.00;96.80
63317;DHT22;49822;41.468;13.560;2023-01-16T07:25:56;8.00;96.70
63317;DHT22;49822;41.468;13.560;2023-01-16T07:28:26;7.90;96.50
63317;DHT22;49822;41.468;13.560;2023-01-16T07:30:56;7.90;96.60
63317;DHT22;49822;41.468;13.560;2023-01-16T07:33:27;8.00;96.60
63317;DHT22;49822;41.468;13.560;2023-01-16T07:35:55;7.80;96.60
63317;DHT22;49822;41.468;13.560;2023-01-16T07:38:24;7.90;96.90
63317;DHT22;49822;41.468;13.560;2023-01-16T07:40:51;8.00;97.20
63317;DHT22;49822;41.468;13.560;2023-01-16T07:43:18;8.00;96.90
63317;DHT22;49822;41.468;13.560;2023-01-16T07:45:47;8.10;97.30
63317;DHT22;49822;41.468;13.560;2023-01-16T07:48:22;8.20;97.10
63317;DHT22;49822;41.468;13.560;2023-01-16T07:50:57;8.20;97.20
63317;DHT22;49822;41.468;13.560;2023-01-16T07:53:27;8.50;97.40
63317;DHT22;49822;41.468;13.560;2023-01-16T07:56:00;8.60;97.30
63317;DHT22;49822;41.468;13.560;2023-01-16T07:58:29;8.80;97.00
63317;DHT22;49822;41.468;13.560;2023-01-16T08:00:58;8.90;96.50
63317;DHT22;49822;41.468;13.560;2023-01-16T08:03:27;8.90;95.90
63317;DHT22;49822;41.468;13.560;2023-01-16T08:05:58;8.80;95.50
63317;DHT22;49822;41.468;13.560;2023-01-16T08:08:27;8.80;95.50
63317;DHT22;49822;41.468;13.560;2023-01-16T08:10:58;8.90;95.70
63317;DHT22;49822;41.468;13.560;2023-01-16T08:13:26;9.00;95.70
63317;DHT22;49822;41.468;13.560;2023-01-16T08:16:07;9.00;95.30
63317;DHT22;49822;41.468;13.560;2023-01-16T08:18:35;9.20;94.80
63317;DHT22;49822;41.468;13.560;2023-01-16T08:21:02;9.40;94.50
63317;DHT22;49822;41.468;13.560;2023-01-16T08:23:31;10.00;96.00
63317;DHT22;49822;41.468;13.560;2023-01-16T08:25:58;10.50;95.60
63317;DHT22;49822;41.468;13.560;2023-01-16T08:28:28;10.80;93.00
63317;DHT22;49822;41.468;13.560;2023-01-16T08:31:02;10.50;89.50
63317;DHT22;49822;41.468;13.560;2023-01-16T08:33:31;10.20;90.20
63317;DHT22;49822;41.468;13.560;2023-01-16T08:35:58;10.30;90.80
63317;DHT22;49822;41.468;13.560;2023-01-16T08:38:26;10.60;91.50
63317;DHT22;49822;41.468;13.560;2023-01-16T08:40:54;10.90;90.80
63317;DHT22;49822;41.468;13.560;2023-01-16T08:43:22;11.00;89.40
63317;DHT22;49822;41.468;13.560;2023-01-16T08:46:20;11.10;88.10
63317;DHT22;49822;41.468;13.560;2023-01-16T08:49:13;10.90;87.40
63317;DHT22;49822;41.468;13.560;2023-01-16T08:52:00;10.70;87.50
63317;DHT22;49822;41.468;13.560;2023-01-16T08:54:28;10.80;89.70
63317;DHT22;49822;41.468;13.560;2023-01-16T08:56:55;10.80;89.60
63317;DHT22;49822;41.468;13.560;2023-01-16T08:59:23;10.80;89.70
63317;DHT22;49822;41.468;13.560;2023-01-16T09:01:51;10.90;89.50
63317;DHT22;49822;41.468;13.560;2023-01-16T09:04:19;10.60;89.70
63317;DHT22;49822;41.468;13.560;2023-01-16T09:06:47;10.50;90.40
63317;DHT22;49822;41.468;13.560;2023-01-16T09:09:15;10.40;90.90
63317;DHT22;49822;41.468;13.560;2023-01-16T09:11:43;10.40;91.40
63317;DHT22;49822;41.468;13.560;2023-01-16T09:14:29;10.60;92.50
63317;DHT22;49822;41.468;13.560;2023-01-16T09:16:56;11.10;91.50
63317;DHT22;49822;41.468;13.560;2023-01-16T09:19:24;11.20;90.00
63317;DHT22;49822;41.468;13.560;2023-01-16T09:21:52;11.30;88.80
63317;DHT22;49822;41.468;13.560;2023-01-16T09:24:19;11.30;88.60
63317;DHT22;49822;41.468;13.560;2023-01-16T09:26:47;11.10;89.10
63317;DHT22;49822;41.468;13.560;2023-01-16T09:29:17;11.00;88.80
63317;DHT22;49822;41.468;13.560;2023-01-16T09:31:44;10.90;89.50
63317;DHT22;49822;41.468;13.560;2023-01-16T09:34:13;11.00;87.60
63317;DHT22;49822;41.468;13.560;2023-01-16T09:36:40;11.20;85.80
63317;DHT22;49822;41.468;13.560;2023-01-16T09:39:09;11.40;84.40
63317;DHT22;49822;41.468;13.560;2023-01-16T09:41:50;11.30;76.60
63317;DHT22;49822;41.468;13.560;2023-01-16T09:44:40;11.40;73.40
63317;DHT22;49822;41.468;13.560;2023-01-16T09:47:08;11.50;79.90
63317;DHT22;49822;41.468;13.560;2023-01-16T09:52:49;11.60;67.40
63317;DHT22;49822;41.468;13.560;2023-01-16T09:55:56;11.90;72.20
63317;DHT22;49822;41.468;13.560;2023-01-16T09:59:07;11.90;64.20
63317;DHT22;49822;41.468;13.560;2023-01-16T10:01:46;12.00;64.50
63317;DHT22;49822;41.468;13.560;2023-01-16T10:04:20;12.10;65.60
63317;DHT22;49822;41.468;13.560;2023-01-16T10:09:40;12.20;71.70
63317;DHT22;49822;41.468;13.560;2023-01-16T10:12:11;12.20;63.10
63317;DHT22;49822;41.468;13.560;2023-01-16T10:17:37;12.10;64.30
63317;DHT22;49822;41.468;13.560;2023-01-16T10:20:43;12.10;65.30
63317;DHT22;49822;41.468;13.560;2023-01-16T10:31:26;11.90;67.60
63317;DHT22;49822;41.468;13.560;2023-01-16T10:34:03;11.70;66.50
63317;DHT22;49822;41.468;13.560;2023-01-16T10:36:43;11.70;66.00
63317;DHT22;49822;41.468;13.560;2023-01-16T10:39:15;11.70;62.90
63317;DHT22;49822;41.468;13.560;2023-01-16T10:42:14;11.90;64.00
63317;DHT22;49822;41.468;13.560;2023-01-16T10:47:51;11.90;63.90
63317;DHT22;49822;41.468;13.560;2023-01-16T10:50:39;12.00;65.90
63317;DHT22;49822;41.468;13.560;2023-01-16T10:53:09;12.00;64.20
63317;DHT22;49822;41.468;13.560;2023-01-16T10:55:44;12.00;62.90
63317;DHT22;49822;41.468;13.560;2023-01-16T11:00:58;12.00;62.90
63317;DHT22;49822;41.468;13.560;2023-01-16T11:03:43;12.00;63.10
63317;DHT22;49822;41.468;13.560;2023-01-16T11:06:19;12.10;62.10
63317;DHT22;49822;41.468;13.560;2023-01-16T11:08:52;12.80;62.90
63317;DHT22;49822;41.468;13.560;2023-01-16T11:11:27;13.80;55.70
63317;DHT22;49822;41.468;13.560;2023-01-16T11:14:19;13.30;59.70
63317;DHT22;49822;41.468;13.560;2023-01-16T11:17:31;12.90;58.50
63317;DHT22;49822;41.468;13.560;2023-01-16T11:20:30;12.50;59.60
63317;DHT22;49822;41.468;13.560;2023-01-16T11:22:59;12.50;60.20
63317;DHT22;49822;41.468;13.560;2023-01-16T11:25:28;12.40;60.10
63317;DHT22;49822;41.468;13.560;2023-01-16T11:27:58;12.30;59.50
63317;DHT22;49822;41.468;13.560;2023-01-16T11:30:32;12.30;58.60
63317;DHT22;49822;41.468;13.560;2023-01-16T11:33:03;12.30;60.10
63317;DHT22;49822;41.468;13.560;2023-01-16T11:35:37;12.40;59.40
63317;DHT22;49822;41.468;13.560;2023-01-16T11:38:05;12.50;59.60
63317;DHT22;49822;41.468;13.560;2023-01-16T11:40:44;12.50;58.20
63317;DHT22;49822;41.468;13.560;2023-01-16T11:43:17;12.60;61.00
63317;DHT22;49822;41.468;13.560;2023-01-16T11:46:09;12.70;60.20
63317;DHT22;49822;41.468;13.560;2023-01-16T11:48:52;12.70;61.60
63317;DHT22;49822;41.468;13.560;2023-01-16T11:51:31;12.80;57.80
63317;DHT22;49822;41.468;13.560;2023-01-16T11:54:00;12.80;57.10
63317;DHT22;49822;41.468;13.560;2023-01-16T12:10:44;11.60;60.00
63317;DHT22;49822;41.468;13.560;2023-01-16T12:13:17;11.70;57.20
63317;DHT22;49822;41.468;13.560;2023-01-16T12:16:16;11.80;58.40
63317;DHT22;49822;41.468;13.560;2023-01-16T12:21:29;11.80;61.30
63317;DHT22;49822;41.468;13.560;2023-01-16T12:30:19;11.90;60.30
63317;DHT22;49822;41.468;13.560;2023-01-16T12:44:23;11.80;65.40
63317;DHT22;49822;41.468;13.560;2023-01-16T12:49:44;12.20;65.30
63317;DHT22;49822;41.468;13.560;2023-01-16T12:52:51;12.30;65.70
63317;DHT22;49822;41.468;13.560;2023-01-16T12:55:34;12.30;66.30
63317;DHT22;49822;41.468;13.560;2023-01-16T12:58:22;12.70;64.60
63317;DHT22;49822;41.468;13.560;2023-01-16T13:01:10;12.50;66.10
63317;DHT22;49822;41.468;13.560;2023-01-16T13:04:34;12.50;65.10
63317;DHT22;49822;41.468;13.560;2023-01-16T13:07:00;12.20;64.30
63317;DHT22;49822;41.468;13.560;2023-01-16T13:09:41;12.20;66.70
63317;DHT22;49822;41.468;13.560;2023-01-16T13:15:07;12.00;66.60
63317;DHT22;49822;41.468;13.560;2023-01-16T13:17:52;12.00;66.50
63317;DHT22;49822;41.468;13.560;2023-01-16T13:20:24;11.90;67.20
63317;DHT22;49822;41.468;13.560;2023-01-16T13:22:57;11.80;66.70
63317;DHT22;49822;41.468;13.560;2023-01-16T13:25:44;11.70;64.50
63317;DHT22;49822;41.468;13.560;2023-01-16T13:28:43;11.90;64.10
63317;DHT22;49822;41.468;13.560;2023-01-16T13:31:25;11.90;62.20
63317;DHT22;49822;41.468;13.560;2023-01-16T13:34:14;12.00;62.50
63317;DHT22;49822;41.468;13.560;2023-01-16T13:42:34;11.90;67.00
63317;DHT22;49822;41.468;13.560;2023-01-16T13:45:17;11.90;65.80
63317;DHT22;49822;41.468;13.560;2023-01-16T13:48:11;11.90;64.60
63317;DHT22;49822;41.468;13.560;2023-01-16T13:50:42;11.90;67.00
63317;DHT22;49822;41.468;13.560;2023-01-16T13:53:13;11.90;67.20
63317;DHT22;49822;41.468;13.560;2023-01-16T13:55:40;11.90;66.10
63317;DHT22;49822;41.468;13.560;2023-01-16T13:58:19;11.90;64.20
63317;DHT22;49822;41.468;13.560;2023-01-16T14:01:03;12.00;61.50
63317;DHT22;49822;41.468;13.560;2023-01-16T14:03:33;12.10;59.90
63317;DHT22;49822;41.468;13.560;2023-01-16T14:17:12;12.40;56.90
63317;DHT22;49822;41.468;13.560;2023-01-16T14:20:01;12.40;56.90
63317;DHT22;49822;41.468;13.560;2023-01-16T14:22:35;12.30;57.40
63317;DHT22;49822;41.468;13.560;2023-01-16T14:25:06;12.30;57.40
63317;DHT22;49822;41.468;13.560;2023-01-16T14:27:37;12.30;56.50
63317;DHT22;49822;41.468;13.560;2023-01-16T14:32:55;12.30;57.60
63317;DHT22;49822;41.468;13.560;2023-01-16T14:35:28;12.20;58.20
63317;DHT22;49822;41.468;13.560;2023-01-16T14:40:28;11.50;63.30
63317;DHT22;49822;41.468;13.560;2023-01-16T14:43:34;11.50;62.30
63317;DHT22;49822;41.468;13.560;2023-01-16T14:55:50;11.40;65.20
63317;DHT22;49822;41.468;13.560;2023-01-16T14:58:45;11.50;65.00
63317;DHT22;49822;41.468;13.560;2023-01-16T15:01:31;11.40;64.70
63317;DHT22;49822;41.468;13.560;2023-01-16T15:04:21;11.50;63.00
63317;DHT22;49822;41.468;13.560;2023-01-16T15:06:54;11.50;65.00
63317;DHT22;49822;41.468;13.560;2023-01-16T15:09:22;11.50;63.10
63317;DHT22;49822;41.468;13.560;2023-01-16T15:11:58;11.50;62.80
63317;DHT22;49822;41.468;13.560;2023-01-16T15:14:28;11.50;66.80
63317;DHT22;49822;41.468;13.560;2023-01-16T15:17:09;11.10;69.60
63317;DHT22;49822;41.468;13.560;2023-01-16T15:20:06;10.90;70.90
63317;DHT22;49822;41.468;13.560;2023-01-16T15:22:54;10.80;71.80
63317;DHT22;49822;41.468;13.560;2023-01-16T15:28:10;10.70;72.80
63317;DHT22;49822;41.468;13.560;2023-01-16T15:30:43;10.60;74.00
63317;DHT22;49822;41.468;13.560;2023-01-16T15:33:31;10.50;74.30
63317;DHT22;49822;41.468;13.560;2023-01-16T15:36:25;10.50;75.00
63317;DHT22;49822;41.468;13.560;2023-01-16T15:38:56;10.40;74.60
63317;DHT22;49822;41.468;13.560;2023-01-16T15:41:30;10.40;74.50
63317;DHT22;49822;41.468;13.560;2023-01-16T15:44:20;10.30;74.60
63317;DHT22;49822;41.468;13.560;2023-01-16T15:53:09;10.10;75.20
63317;DHT22;49822;41.468;13.560;2023-01-16T15:55:42;10.00;75.10
63317;DHT22;49822;41.468;13.560;2023-01-16T15:58:19;9.80;76.70
63317;DHT22;49822;41.468;13.560;2023-01-16T16:01:03;9.80;77.10
63317;DHT22;49822;41.468;13.560;2023-01-16T16:03:44;10.00;77.20
63317;DHT22;49822;41.468;13.560;2023-01-16T16:06:13;10.00;77.60
63317;DHT22;49822;41.468;13.560;2023-01-16T16:08:49;10.00;78.70
63317;DHT22;49822;41.468;13.560;2023-01-16T16:11:20;10.00;78.60
63317;DHT22;49822;41.468;13.560;2023-01-16T16:14:33;10.00;78.70
63317;DHT22;49822;41.468;13.560;2023-01-16T16:17:25;9.90;78.40
63317;DHT22;49822;41.468;13.560;2023-01-16T16:23:24;9.50;80.70
63317;DHT22;49822;41.468;13.560;2023-01-16T16:26:02;9.30;82.00
63317;DHT22;49822;41.468;13.560;2023-01-16T16:36:37;9.20;83.20
63317;DHT22;49822;41.468;13.560;2023-01-16T16:39:38;9.20;83.60
63317;DHT22;49822;41.468;13.560;2023-01-16T16:42:55;9.20;83.20
63317;DHT22;49822;41.468;13.560;2023-01-16T16:45:27;9.20;83.00
63317;DHT22;49822;41.468;13.560;2023-01-16T16:48:33;9.20;82.30
63317;DHT22;49822;41.468;13.560;2023-01-16T16:53:57;8.90;83.70
63317;DHT22;49822;41.468;13.560;2023-01-16T16:56:27;8.60;86.00
63317;DHT22;49822;41.468;13.560;2023-01-16T16:58:57;8.50;86.40
63317;DHT22;49822;41.468;13.560;2023-01-16T17:01:36;8.50;85.90
63317;DHT22;49822;41.468;13.560;2023-01-16T17:04:09;8.40;86.90
63317;DHT22;49822;41.468;13.560;2023-01-16T17:06:44;8.40;87.00
63317;DHT22;49822;41.468;13.560;2023-01-16T17:09:15;8.50;80.00
63317;DHT22;49822;41.468;13.560;2023-01-16T17:11:45;9.00;82.30
63317;DHT22;49822;41.468;13.560;2023-01-16T17:14:13;9.20;79.30
63317;DHT22;49822;41.468;13.560;2023-01-16T17:16:43;10.00;69.60
63317;DHT22;49822;41.468;13.560;2023-01-16T17:21:48;10.30;67.40
63317;DHT22;49822;41.468;13.560;2023-01-16T17:24:19;10.60;65.80
63317;DHT22;49822;41.468;13.560;2023-01-16T17:26:47;10.50;70.30
63317;DHT22;49822;41.468;13.560;2023-01-16T17:29:16;10.30;73.00
63317;DHT22;49822;41.468;13.560;2023-01-16T17:31:46;10.20;75.00
63317;DHT22;49822;41.468;13.560;2023-01-16T17:34:18;10.00;77.70
63317;DHT22;49822;41.468;13.560;2023-01-16T17:36:47;9.70;79.30
63317;DHT22;49822;41.468;13.560;2023-01-16T17:39:19;9.60;80.40
63317;DHT22;49822;41.468;13.560;2023-01-16T17:41:47;9.60;81.00
63317;DHT22;49822;41.468;13.560;2023-01-16T17:44:22;9.30;82.20
63317;DHT22;49822;41.468;13.560;2023-01-16T17:47:09;9.20;83.60
63317;DHT22;49822;41.468;13.560;2023-01-16T17:49:38;9.20;84.60
63317;DHT22;49822;41.468;13.560;2023-01-16T17:52:24;9.10;84.00
63317;DHT22;49822;41.468;13.560;2023-01-16T17:54:52;8.70;86.30
63317;DHT22;49822;41.468;13.560;2023-01-16T17:57:39;8.70;86.70
63317;DHT22;49822;41.468;13.560;2023-01-16T18:00:07;9.10;83.00
63317;DHT22;49822;41.468;13.560;2023-01-16T18:02:34;9.20;83.60
63317;DHT22;49822;41.468;13.560;2023-01-16T18:05:05;9.10;85.20
63317;DHT22;49822;41.468;13.560;2023-01-16T18:07:33;9.00;86.10
63317;DHT22;49822;41.468;13.560;2023-01-16T18:10:01;8.90;86.20
63317;DHT22;49822;41.468;13.560;2023-01-16T18:12:28;8.90;86.70
63317;DHT22;49822;41.468;13.560;2023-01-16T18:15:14;8.80;87.20
63317;DHT22;49822;41.468;13.560;2023-01-16T18:18:02;8.70;87.50
63317;DHT22;49822;41.468;13.560;2023-01-16T18:20:30;8.70;87.90
63317;DHT22;49822;41.468;13.560;2023-01-16T18:23:01;8.70;88.20
63317;DHT22;49822;41.468;13.560;2023-01-16T18:25:29;8.70;88.10
63317;DHT22;49822;41.468;13.560;2023-01-16T18:27:56;8.60;88.20
63317;DHT22;49822;41.468;13.560;2023-01-16T18:30:24;8.60;88.80
63317;DHT22;49822;41.468;13.560;2023-01-16T18:32:52;8.40;89.10
63317;DHT22;49822;41.468;13.560;2023-01-16T18:35:20;8.50;89.90
63317;DHT22;49822;41.468;13.560;2023-01-16T18:37:48;8.60;90.00
63317;DHT22;49822;41.468;13.560;2023-01-16T18:40:34;8.50;89.80
63317;DHT22;49822;41.468;13.560;2023-01-16T18:43:22;8.60;90.10
63317;DHT22;49822;41.468;13.560;2023-01-16T18:46:16;8.70;90.20
63317;DHT22;49822;41.468;13.560;2023-01-16T18:49:10;8.60;88.70
63317;DHT22;49822;41.468;13.560;2023-01-16T18:51:56;8.30;89.60
63317;DHT22;49822;41.468;13.560;2023-01-16T18:54:43;8.10;91.20
63317;DHT22;49822;41.468;13.560;2023-01-16T18:57:32;8.20;91.90
63317;DHT22;49822;41.468;13.560;2023-01-16T19:00:18;8.30;92.10
63317;DHT22;49822;41.468;13.560;2023-01-16T19:03:11;8.50;92.00
63317;DHT22;49822;41.468;13.560;2023-01-16T19:05:39;8.60;91.10
63317;DHT22;49822;41.468;13.560;2023-01-16T19:08:07;8.40;90.00
63317;DHT22;49822;41.468;13.560;2023-01-16T19:10:52;8.20;90.70
63317;DHT22;49822;41.468;13.560;2023-01-16T19:13:20;8.30;91.60
63317;DHT22;49822;41.468;13.560;2023-01-16T19:15:49;8.40;91.60
63317;DHT22;49822;41.468;13.560;2023-01-16T19:18:39;8.50;91.60